createdAt,value
2018-03-20T00:02:15.586Z,68
2018-03-20T00:07:42.710Z,68
2018-03-20T00:13:10.820Z,68
2018-03-20T00:18:37.985Z,68
2018-03-20T00:24:06.101Z,68
2018-03-20T00:29:34.244Z,68
2018-03-20T00:35:01.430Z,68
2018-03-20T00:40:28.508Z,68
2018-03-20T00:45:56.662Z,68
2018-03-20T00:51:23.769Z,68
2018-03-20T00:56:51.863Z,68
2018-03-20T01:02:19.997Z,69
2018-03-20T01:07:48.171Z,69
2018-03-20T01:13:16.305Z,69
2018-03-20T01:18:43.520Z,69
2018-03-20T01:24:11.723Z,69
2018-03-20T01:29:39.865Z,69
2018-03-20T01:35:07.012Z,69
2018-03-20T01:40:34.168Z,69
2018-03-20T01:46:02.313Z,69
2018-03-20T01:51:30.506Z,69
2018-03-20T01:56:57.616Z,69
2018-03-20T02:02:25.714Z,69
2018-03-20T02:07:52.832Z,69
2018-03-20T02:13:20.244Z,69
2018-03-20T02:18:48.145Z,69
2018-03-20T02:24:15.178Z,69
2018-03-20T02:29:42.360Z,70
2018-03-20T02:35:09.450Z,70
2018-03-20T02:40:37.736Z,70
2018-03-20T02:46:05.550Z,70
2018-03-20T02:51:32.607Z,70
2018-03-20T02:57:00.701Z,70
2018-03-20T03:02:27.802Z,70
2018-03-20T03:07:54.989Z,70
2018-03-20T03:13:21.969Z,70
2018-03-20T03:18:50.009Z,70
2018-03-20T03:24:18.036Z,70
2018-03-20T03:29:46.134Z,70
2018-03-20T03:35:13.150Z,70
2018-03-20T03:40:40.176Z,70
2018-03-20T03:46:07.254Z,70
2018-03-20T03:51:34.373Z,70
2018-03-20T03:57:01.401Z,70
2018-03-20T04:02:28.425Z,70
2018-03-20T04:07:56.437Z,70
2018-03-20T04:13:24.482Z,70
2018-03-20T04:18:52.481Z,70
2018-03-20T04:24:19.716Z,70
2018-03-20T04:29:47.538Z,69
2018-03-20T04:35:15.592Z,69
2018-03-20T04:40:43.661Z,69
2018-03-20T04:46:10.603Z,69
2018-03-20T04:51:37.622Z,69
2018-03-20T04:57:04.653Z,69
2018-03-20T05:02:32.733Z,69
2018-03-20T05:07:59.664Z,69
2018-03-20T05:13:26.707Z,69
2018-03-20T05:18:53.736Z,69
2018-03-20T05:24:21.727Z,69
2018-03-20T05:29:48.907Z,69
2018-03-20T05:35:16.774Z,69
2018-03-20T05:40:43.786Z,69
2018-03-20T05:46:10.813Z,69
2018-03-20T05:51:37.770Z,68
2018-03-20T05:57:05.835Z,68
2018-03-20T06:02:32.809Z,68
2018-03-20T06:07:59.803Z,68
2018-03-20T06:13:27.867Z,68
2018-03-20T06:18:55.884Z,68
2018-03-20T06:24:23.905Z,68
2018-03-20T06:29:50.922Z,68
2018-03-20T06:35:18.947Z,68
2018-03-20T06:40:46.965Z,68
2018-03-20T06:46:15.117Z,68
2018-03-20T06:51:42.063Z,68
2018-03-20T06:57:09.072Z,68
2018-03-20T07:02:37.116Z,67
2018-03-20T07:08:04.158Z,67
2018-03-20T07:13:32.227Z,67
2018-03-20T07:19:00.297Z,67
2018-03-20T07:24:27.333Z,67
2018-03-20T07:29:55.388Z,67
2018-03-20T07:35:23.724Z,67
2018-03-20T07:40:50.646Z,67
2018-03-20T07:46:17.760Z,67
2018-03-20T07:51:44.775Z,67
2018-03-20T07:57:11.890Z,66
2018-03-20T08:02:39.009Z,66
2018-03-20T08:08:06.089Z,66
2018-03-20T08:13:34.247Z,66
2018-03-20T08:19:02.332Z,66
2018-03-20T08:24:29.465Z,66
2018-03-20T08:29:56.634Z,66
2018-03-20T08:35:24.769Z,66
2018-03-20T08:40:52.921Z,65
2018-03-20T08:46:20.101Z,65
2018-03-20T08:51:47.362Z,65
2018-03-20T08:57:15.443Z,65
2018-03-20T09:02:43.697Z,65
2018-03-20T09:08:11.885Z,65
2018-03-20T09:13:40.087Z,64
2018-03-20T09:19:07.289Z,64
2018-03-20T09:24:35.533Z,64
2018-03-20T09:30:02.990Z,64
2018-03-20T09:35:29.975Z,63
2018-03-20T09:40:58.229Z,63
2018-03-20T09:46:25.504Z,63
2018-03-20T09:51:53.808Z,63
2018-03-20T09:57:22.204Z,62
2018-03-20T10:02:49.366Z,62
2018-03-20T10:08:16.684Z,62
2018-03-20T10:13:43.970Z,62
2018-03-20T10:19:12.293Z,61
2018-03-20T10:24:39.635Z,61
2018-03-20T10:30:07.968Z,61
2018-03-20T10:35:35.389Z,61
2018-03-20T10:41:03.701Z,60
2018-03-20T10:46:31.256Z,60
2018-03-20T10:51:58.423Z,60
2018-03-20T10:57:25.760Z,59
2018-03-20T11:03:31.301Z,59
2018-03-20T11:08:21.481Z,59
2018-03-20T11:13:50.058Z,59
2018-03-20T11:19:18.304Z,59
2018-03-20T11:24:46.897Z,58
2018-03-20T11:30:15.080Z,58
2018-03-20T11:35:42.493Z,58
2018-03-20T11:41:09.895Z,58
2018-03-20T11:46:37.562Z,57
2018-03-20T11:52:07.001Z,57
2018-03-20T11:57:34.150Z,57
2018-03-20T12:03:02.640Z,57
2018-03-20T12:08:30.369Z,56
2018-03-20T12:13:58.671Z,56
2018-03-20T12:19:27.750Z,56
2018-03-20T12:24:54.292Z,55
2018-03-20T12:30:21.733Z,55
2018-03-20T12:35:50.529Z,55
2018-03-20T12:41:18.320Z,54
2018-03-20T12:46:46.176Z,54
2018-03-20T12:52:13.879Z,54
2018-03-20T12:57:43.003Z,53
2018-03-20T13:03:12.671Z,53
2018-03-20T13:10:36.104Z,52
2018-03-20T13:14:07.360Z,52
2018-03-20T13:19:35.527Z,51
2018-03-20T13:25:03.114Z,50
2018-03-20T13:30:31.103Z,50
2018-03-20T13:36:00.344Z,50
2018-03-20T13:41:28.091Z,50
2018-03-20T13:46:56.090Z,49
2018-03-20T13:52:24.802Z,48
2018-03-20T13:57:53.142Z,48
2018-03-20T14:03:22.413Z,47
2018-03-20T14:08:50.544Z,47
2018-03-20T14:14:18.425Z,46
2018-03-20T14:19:48.856Z,46
2018-03-20T14:25:15.777Z,46
2018-03-20T14:30:43.963Z,45
2018-03-20T14:36:12.262Z,46
2018-03-20T14:41:40.490Z,45
2018-03-20T14:47:09.973Z,45
2018-03-20T14:52:38.285Z,45
2018-03-20T14:58:07.777Z,44
2018-03-20T15:03:37.466Z,44
2018-03-20T15:09:06.632Z,44
2018-03-20T15:14:35.034Z,42
2018-03-20T15:20:03.603Z,43
2018-03-20T15:25:31.999Z,43
2018-03-20T15:31:01.398Z,42
2018-03-20T15:36:30.773Z,42
2018-03-20T15:41:58.967Z,43
2018-03-20T15:47:27.872Z,42
2018-03-20T15:52:55.730Z,41
2018-03-20T15:58:23.496Z,41
2018-03-20T16:03:50.980Z,40
2018-03-20T16:09:19.508Z,40
2018-03-20T16:14:47.023Z,40
2018-03-20T16:20:14.562Z,40
2018-03-20T16:25:43.081Z,40
2018-03-20T16:31:11.583Z,40
2018-03-20T16:36:40.050Z,40
2018-03-20T16:42:07.780Z,41
2018-03-20T16:47:36.214Z,41
2018-03-20T16:53:04.417Z,41
2018-03-20T16:58:32.920Z,41
2018-03-20T17:04:01.407Z,41
2018-03-20T17:09:29.818Z,41
2018-03-20T17:14:57.421Z,41
2018-03-20T17:20:25.662Z,42
2018-03-20T17:25:54.066Z,42
2018-03-20T17:31:22.460Z,42
2018-03-20T17:36:50.866Z,42
2018-03-20T17:42:18.230Z,42
2018-03-20T17:47:46.594Z,42
2018-03-20T17:53:14.935Z,43
2018-03-20T17:58:43.266Z,43
2018-03-20T18:04:11.576Z,43
2018-03-20T18:09:39.909Z,43
2018-03-20T18:15:08.070Z,44
2018-03-20T18:20:36.284Z,44
2018-03-20T18:26:03.560Z,44
2018-03-20T18:31:31.768Z,44
2018-03-20T18:37:00.057Z,44
2018-03-20T18:42:27.201Z,45
2018-03-20T18:47:54.418Z,45
2018-03-20T18:53:22.594Z,45
2018-03-20T18:58:49.852Z,45
2018-03-20T19:04:18.150Z,45
2018-03-20T19:09:46.168Z,45
2018-03-20T19:15:13.334Z,46
2018-03-20T19:20:40.483Z,47
2018-03-20T19:26:08.646Z,47
2018-03-20T19:31:36.805Z,47
2018-03-20T19:37:04.916Z,47
2018-03-20T19:42:33.042Z,47
2018-03-20T19:48:00.177Z,48
2018-03-20T19:53:28.254Z,48
2018-03-20T19:58:55.369Z,48
2018-03-20T20:04:22.516Z,48
2018-03-20T20:09:50.580Z,49
2018-03-20T20:15:17.794Z,48
2018-03-20T20:20:45.794Z,48
2018-03-20T20:26:13.893Z,49
2018-03-20T20:31:40.977Z,49
2018-03-20T20:37:09.325Z,49
2018-03-20T20:42:36.170Z,49
2018-03-20T20:48:03.161Z,50
2018-03-20T20:53:30.261Z,50
2018-03-20T20:58:58.336Z,50
2018-03-20T21:04:26.390Z,50
2018-03-20T21:09:54.426Z,50
2018-03-20T21:15:21.440Z,51
2018-03-20T21:20:49.595Z,51
2018-03-20T21:26:16.519Z,51
2018-03-20T21:31:44.562Z,52
2018-03-20T21:37:12.559Z,52
2018-03-20T21:42:39.529Z,52
2018-03-20T21:48:07.498Z,52
2018-03-20T21:53:34.542Z,52
2018-03-20T21:59:02.577Z,52
2018-03-20T22:04:30.546Z,52
2018-03-20T22:09:57.630Z,52
2018-03-20T22:15:24.618Z,52
2018-03-20T22:20:52.621Z,52
2018-03-20T22:26:19.652Z,52
2018-03-20T22:31:47.850Z,53
2018-03-20T22:37:14.617Z,53
2018-03-20T22:42:42.619Z,53
2018-03-20T22:48:09.648Z,53
2018-03-20T22:53:37.746Z,53
2018-03-20T22:59:05.617Z,53
2018-03-20T23:04:33.656Z,53
2018-03-20T23:10:00.651Z,53
2018-03-20T23:15:27.645Z,54
2018-03-20T23:20:54.519Z,54
2018-03-20T23:26:22.506Z,55
2018-03-20T23:31:50.468Z,55
2018-03-20T23:37:18.325Z,54
2018-03-20T23:42:45.286Z,54
2018-03-20T23:48:12.202Z,55
2018-03-20T23:53:40.115Z,55
2018-03-20T23:59:08.043Z,55
